sensor_id;sensor_type;location;lat;lon;timestamp;temperature;humidity
63277;DHT22;49403;51.046;13.780;2024-01-15T00:00:19;5.00;77.80
63277;DHT22;49403;51.046;13.780;2024-01-15T00:00:50;5.00;77.80
63277;DHT22;49403;51.046;13.780;2024-01-15T00:01:21;5.00;78.20
63277;DHT22;49403;51.046;13.780;2024-01-15T00:01:52;5.00;78.00
63277;DHT22;49403;51.046;13.780;2024-01-15T00:02:23;5.00;78.50
63277;DHT22;49403;51.046;13.780;2024-01-15T00:02:54;5.00;78.00
63277;DHT22;49403;51.046;13.780;2024-01-15T00:03:25;3.30;76.40
63277;DHT22;49403;51.046;13.780;2024-01-15T00:03:55;5.00;77.90
63277;DHT22;49403;51.046;13.780;2024-01-15T00:04:26;5.00;77.90
63277;DHT22;49403;51.046;13.780;2024-01-15T00:04:57;4.90;78.00
63277;DHT22;49403;51.046;13.780;2024-01-15T00:05:28;5.10;78.10
63277;DHT22;49403;51.046;13.780;2024-01-15T00:05:58;4.90;77.80
63277;DHT22;49403;51.046;13.780;2024-01-15T00:06:29;4.90;77.70
63277;DHT22;49403;51.046;13.780;2024-01-15T00:07:00;4.80;77.60
63277;DHT22;49403;51.046;13.780;2024-01-15T00:07:31;4.90;77.50
63277;DHT22;49403;51.046;13.780;2024-01-15T00:08:02;4.90;77.50
63277;DHT22;49403;51.046;13.780;2024-01-15T00:08:33;4.80;77.50
63277;DHT22;49403;51.046;13.780;2024-01-15T00:09:03;6.20;78.80
63277;DHT22;49403;51.046;13.780;2024-01-15T00:09:35;4.80;77.60
63277;DHT22;49403;51.046;13.780;2024-01-15T00:10:06;4.80;77.20
63277;DHT22;49403;51.046;13.780;2024-01-15T00:10:37;4.80;77.60
63277;DHT22;49403;51.046;13.780;2024-01-15T00:11:07;6.50;79.40
63277;DHT22;49403;51.046;13.780;2024-01-15T00:11:38;4.80;78.00
63277;DHT22;49403;51.046;13.780;2024-01-15T00:12:09;4.70;78.00
63277;DHT22;49403;51.046;13.780;2024-01-15T00:12:40;4.90;77.90
63277;DHT22;49403;51.046;13.780;2024-01-15T00:13:10;4.90;77.90
63277;DHT22;49403;51.046;13.780;2024-01-15T00:13:41;5.40;78.20
63277;DHT22;49403;51.046;13.780;2024-01-15T00:14:12;5.00;77.70
63277;DHT22;49403;51.046;13.780;2024-01-15T00:14:44;5.00;77.70
63277;DHT22;49403;51.046;13.780;2024-01-15T00:15:15;5.00;77.90
63277;DHT22;49403;51.046;13.780;2024-01-15T00:15:46;5.80;78.50
63277;DHT22;49403;51.046;13.780;2024-01-15T00:16:17;5.00;77.50
63277;DHT22;49403;51.046;13.780;2024-01-15T00:16:47;5.80;78.10
63277;DHT22;49403;51.046;13.780;2024-01-15T00:17:21;5.00;77.40
63277;DHT22;49403;51.046;13.780;2024-01-15T00:17:51;5.00;77.40
63277;DHT22;49403;51.046;13.780;2024-01-15T00:18:22;5.90;78.30
63277;DHT22;49403;51.046;13.780;2024-01-15T00:18:53;4.90;77.00
63277;DHT22;49403;51.046;13.780;2024-01-15T00:19:24;5.00;77.60
63277;DHT22;49403;51.046;13.780;2024-01-15T00:19:55;4.90;77.50
63277;DHT22;49403;51.046;13.780;2024-01-15T00:20:26;4.90;77.50
63277;DHT22;49403;51.046;13.780;2024-01-15T00:20:56;4.90;77.50
63277;DHT22;49403;51.046;13.780;2024-01-15T00:21:27;5.40;78.10
63277;DHT22;49403;51.046;13.780;2024-01-15T00:21:58;4.80;77.50
63277;DHT22;49403;51.046;13.780;2024-01-15T00:22:29;4.90;77.90
63277;DHT22;49403;51.046;13.780;2024-01-15T00:23:01;4.80;78.00
63277;DHT22;49403;51.046;13.780;2024-01-15T00:23:32;4.80;77.90
63277;DHT22;49403;51.046;13.780;2024-01-15T00:24:02;4.80;77.80
63277;DHT22;49403;51.046;13.780;2024-01-15T00:24:33;4.80;77.70
63277;DHT22;49403;51.046;13.780;2024-01-15T00:25:04;4.70;77.80
63277;DHT22;49403;51.046;13.780;2024-01-15T00:25:35;4.50;77.60
63277;DHT22;49403;51.046;13.780;2024-01-15T00:26:06;3.80;77.00
63277;DHT22;49403;51.046;13.780;2024-01-15T00:26:37;5.90;79.10
63277;DHT22;49403;51.046;13.780;2024-01-15T00:27:07;4.80;77.90
63277;DHT22;49403;51.046;13.780;2024-01-15T00:27:38;4.80;78.10
63277;DHT22;49403;51.046;13.780;2024-01-15T00:28:09;4.60;78.00
63277;DHT22;49403;51.046;13.780;2024-01-15T00:28:40;4.80;78.10
63277;DHT22;49403;51.046;13.780;2024-01-15T00:29:11;6.20;80.10
63277;DHT22;49403;51.046;13.780;2024-01-15T00:29:41;4.80;77.90
63277;DHT22;49403;51.046;13.780;2024-01-15T00:30:12;4.90;78.10
63277;DHT22;49403;51.046;13.780;2024-01-15T00:30:44;4.80;77.70
63277;DHT22;49403;51.046;13.780;2024-01-15T00:31:16;4.90;78.30
63277;DHT22;49403;51.046;13.780;2024-01-15T00:31:47;6.30;80.00
63277;DHT22;49403;51.046;13.780;2024-01-15T00:32:18;4.90;78.50
63277;DHT22;49403;51.046;13.780;2024-01-15T00:32:50;4.80;78.50
63277;DHT22;49403;51.046;13.780;2024-01-15T00:33:21;4.80;78.60
63277;DHT22;49403;51.046;13.780;2024-01-15T00:33:52;4.80;78.90
63277;DHT22;49403;51.046;13.780;2024-01-15T00:34:22;4.80;78.90
63277;DHT22;49403;51.046;13.780;2024-01-15T00:34:53;4.80;79.00
63277;DHT22;49403;51.046;13.780;2024-01-15T00:35:24;4.80;79.20
63277;DHT22;49403;51.046;13.780;2024-01-15T00:35:55;4.80;79.30
63277;DHT22;49403;51.046;13.780;2024-01-15T00:36:25;4.60;78.90
63277;DHT22;49403;51.046;13.780;2024-01-15T00:36:56;4.80;79.00
63277;DHT22;49403;51.046;13.780;2024-01-15T00:37:27;4.80;79.00
63277;DHT22;49403;51.046;13.780;2024-01-15T00:37:58;4.60;79.00
63277;DHT22;49403;51.046;13.780;2024-01-15T00:38:29;4.70;79.30
63277;DHT22;49403;51.046;13.780;2024-01-15T00:38:59;4.70;79.10
63277;DHT22;49403;51.046;13.780;2024-01-15T00:39:30;4.60;79.10
63277;DHT22;49403;51.046;13.780;2024-01-15T00:40:01;4.70;79.00
63277;DHT22;49403;51.046;13.780;2024-01-15T00:40:32;4.40;79.00
63277;DHT22;49403;51.046;13.780;2024-01-15T00:41:03;3.30;78.00
63277;DHT22;49403;51.046;13.780;2024-01-15T00:41:33;4.60;79.30
63277;DHT22;49403;51.046;13.780;2024-01-15T00:42:04;4.60;79.40
63277;DHT22;49403;51.046;13.780;2024-01-15T00:42:35;4.70;79.30
63277;DHT22;49403;51.046;13.780;2024-01-15T00:43:06;3.70;78.40
63277;DHT22;49403;51.046;13.780;2024-01-15T00:43:38;4.50;79.00
63277;DHT22;49403;51.046;13.780;2024-01-15T00:44:08;6.00;80.30
63277;DHT22;49403;51.046;13.780;2024-01-15T00:44:39;4.70;79.10
63277;DHT22;49403;51.046;13.780;2024-01-15T00:45:10;4.80;79.20
63277;DHT22;49403;51.046;13.780;2024-01-15T00:45:41;4.80;78.90
63277;DHT22;49403;51.046;13.780;2024-01-15T00:46:12;4.80;78.50
63277;DHT22;49403;51.046;13.780;2024-01-15T00:46:44;4.40;78.50
63277;DHT22;49403;51.046;13.780;2024-01-15T00:47:18;4.50;78.20
63277;DHT22;49403;51.046;13.780;2024-01-15T00:47:49;4.70;78.40
63277;DHT22;49403;51.046;13.780;2024-01-15T00:48:20;4.70;78.80
63277;DHT22;49403;51.046;13.780;2024-01-15T00:48:50;4.70;78.70
63277;DHT22;49403;51.046;13.780;2024-01-15T00:49:21;5.70;79.80
63277;DHT22;49403;51.046;13.780;2024-01-15T00:49:52;4.70;78.90
63277;DHT22;49403;51.046;13.780;2024-01-15T00:50:23;4.70;79.10
63277;DHT22;49403;51.046;13.780;2024-01-15T00:50:54;4.70;78.90
63277;DHT22;49403;51.046;13.780;2024-01-15T00:51:25;4.50;78.50
63277;DHT22;49403;51.046;13.780;2024-01-15T00:51:55;4.70;78.60
63277;DHT22;49403;51.046;13.780;2024-01-15T00:52:26;5.60;79.30
63277;DHT22;49403;51.046;13.780;2024-01-15T00:52:57;4.70;78.60
63277;DHT22;49403;51.046;13.780;2024-01-15T00:53:28;4.70;78.60
63277;DHT22;49403;51.046;13.780;2024-01-15T00:53:58;4.70;78.70
63277;DHT22;49403;51.046;13.780;2024-01-15T00:54:29;4.70;78.70
63277;DHT22;49403;51.046;13.780;2024-01-15T00:55:00;4.70;78.80
63277;DHT22;49403;51.046;13.780;2024-01-15T00:55:30;4.70;78.60
63277;DHT22;49403;51.046;13.780;2024-01-15T00:56:01;4.50;78.60
63277;DHT22;49403;51.046;13.780;2024-01-15T00:56:33;4.80;78.90
63277;DHT22;49403;51.046;13.780;2024-01-15T00:57:04;4.70;78.60
63277;DHT22;49403;51.046;13.780;2024-01-15T00:57:35;4.80;78.70
63277;DHT22;49403;51.046;13.780;2024-01-15T00:58:06;4.80;78.60
63277;DHT22;49403;51.046;13.780;2024-01-15T00:58:36;4.80;78.60
63277;DHT22;49403;51.046;13.780;2024-01-15T00:59:07;4.80;78.50
63277;DHT22;49403;51.046;13.780;2024-01-15T00:59:40;5.80;79.50
63277;DHT22;49403;51.046;13.780;2024-01-15T01:00:12;4.60;78.30
63277;DHT22;49403;51.046;13.780;2024-01-15T01:00:42;4.80;78.10
63277;DHT22;49403;51.046;13.780;2024-01-15T01:01:13;4.80;78.60
63277;DHT22;49403;51.046;13.780;2024-01-15T01:01:45;5.50;79.10
63277;DHT22;49403;51.046;13.780;2024-01-15T01:02:16;4.80;78.10
63277;DHT22;49403;51.046;13.780;2024-01-15T01:02:48;5.90;79.30
63277;DHT22;49403;51.046;13.780;2024-01-15T01:03:19;4.80;78.10
63277;DHT22;49403;51.046;13.780;2024-01-15T01:03:50;5.30;78.60
63277;DHT22;49403;51.046;13.780;2024-01-15T01:04:21;4.80;78.00
63277;DHT22;49403;51.046;13.780;2024-01-15T01:04:52;4.80;78.00
63277;DHT22;49403;51.046;13.780;2024-01-15T01:05:22;4.80;77.90
63277;DHT22;49403;51.046;13.780;2024-01-15T01:05:53;4.80;78.00
63277;DHT22;49403;51.046;13.780;2024-01-15T01:06:24;5.20;78.30
63277;DHT22;49403;51.046;13.780;2024-01-15T01:06:55;4.30;77.10
63277;DHT22;49403;51.046;13.780;2024-01-15T01:07:26;4.70;77.70
63277;DHT22;49403;51.046;13.780;2024-01-15T01:07:56;4.70;77.70
63277;DHT22;49403;51.046;13.780;2024-01-15T01:08:27;4.70;77.70
63277;DHT22;49403;51.046;13.780;2024-01-15T01:08:58;6.10;79.10
63277;DHT22;49403;51.046;13.780;2024-01-15T01:09:30;4.40;77.90
63277;DHT22;49403;51.046;13.780;2024-01-15T01:10:01;4.60;77.80
63277;DHT22;49403;51.046;13.780;2024-01-15T01:10:32;4.60;78.00
63277;DHT22;49403;51.046;13.780;2024-01-15T01:11:03;4.60;78.10
63277;DHT22;49403;51.046;13.780;2024-01-15T01:11:33;4.60;78.20
63277;DHT22;49403;51.046;13.780;2024-01-15T01:12:04;5.30;78.90
63277;DHT22;49403;51.046;13.780;2024-01-15T01:12:35;4.60;78.20
63277;DHT22;49403;51.046;13.780;2024-01-15T01:13:06;4.60;77.90
63277;DHT22;49403;51.046;13.780;2024-01-15T01:13:37;4.60;78.20
63277;DHT22;49403;51.046;13.780;2024-01-15T01:14:08;4.60;78.10
63277;DHT22;49403;51.046;13.780;2024-01-15T01:14:39;4.60;78.00
63277;DHT22;49403;51.046;13.780;2024-01-15T01:15:09;4.60;78.20
63277;DHT22;49403;51.046;13.780;2024-01-15T01:15:40;4.60;78.00
63277;DHT22;49403;51.046;13.780;2024-01-15T01:16:11;4.60;78.20
63277;DHT22;49403;51.046;13.780;2024-01-15T01:16:42;5.70;79.10
63277;DHT22;49403;51.046;13.780;2024-01-15T01:17:13;3.10;76.60
63277;DHT22;49403;51.046;13.780;2024-01-15T01:17:43;4.60;78.00
63277;DHT22;49403;51.046;13.780;2024-01-15T01:18:14;4.60;78.00
63277;DHT22;49403;51.046;13.780;2024-01-15T01:18:45;4.60;78.00
63277;DHT22;49403;51.046;13.780;2024-01-15T01:19:16;4.60;78.00
63277;DHT22;49403;51.046;13.780;2024-01-15T01:19:47;5.40;78.80
63277;DHT22;49403;51.046;13.780;2024-01-15T01:20:17;4.70;78.00
63277;DHT22;49403;51.046;13.780;2024-01-15T01:20:48;4.90;78.20
63277;DHT22;49403;51.046;13.780;2024-01-15T01:21:19;4.60;77.80
63277;DHT22;49403;51.046;13.780;2024-01-15T01:21:50;4.60;78.00
63277;DHT22;49403;51.046;13.780;2024-01-15T01:22:21;5.70;79.00
63277;DHT22;49403;51.046;13.780;2024-01-15T01:22:52;4.60;78.10
63277;DHT22;49403;51.046;13.780;2024-01-15T01:23:23;5.00;78.40
63277;DHT22;49403;51.046;13.780;2024-01-15T01:23:54;4.60;78.00
63277;DHT22;49403;51.046;13.780;2024-01-15T01:24:24;4.60;78.00
63277;DHT22;49403;51.046;13.780;2024-01-15T01:24:55;4.50;78.10
63277;DHT22;49403;51.046;13.780;2024-01-15T01:25:26;4.30;77.70
63277;DHT22;49403;51.046;13.780;2024-01-15T01:25:57;4.50;77.70
63277;DHT22;49403;51.046;13.780;2024-01-15T01:26:28;4.60;78.10
63277;DHT22;49403;51.046;13.780;2024-01-15T01:26:58;4.80;78.30
63277;DHT22;49403;51.046;13.780;2024-01-15T01:27:29;5.90;79.30
63277;DHT22;49403;51.046;13.780;2024-01-15T01:28:00;4.60;78.10
63277;DHT22;49403;51.046;13.780;2024-01-15T01:28:31;4.60;78.10
63277;DHT22;49403;51.046;13.780;2024-01-15T01:29:01;4.60;78.00
63277;DHT22;49403;51.046;13.780;2024-01-15T01:29:32;4.60;78.00
63277;DHT22;49403;51.046;13.780;2024-01-15T01:30:04;5.90;79.10
63277;DHT22;49403;51.046;13.780;2024-01-15T01:30:35;4.40;77.40
63277;DHT22;49403;51.046;13.780;2024-01-15T01:31:05;4.50;77.90
63277;DHT22;49403;51.046;13.780;2024-01-15T01:31:36;4.60;78.00
63277;DHT22;49403;51.046;13.780;2024-01-15T01:32:12;4.60;77.70
63277;DHT22;49403;51.046;13.780;2024-01-15T01:32:43;4.60;78.20
63277;DHT22;49403;51.046;13.780;2024-01-15T01:33:14;5.20;78.60
63277;DHT22;49403;51.046;13.780;2024-01-15T01:33:44;4.60;77.90
63277;DHT22;49403;51.046;13.780;2024-01-15T01:34:16;4.60;77.80
63277;DHT22;49403;51.046;13.780;2024-01-15T01:34:47;4.70;77.50
63277;DHT22;49403;51.046;13.780;2024-01-15T01:35:18;4.60;77.90
63277;DHT22;49403;51.046;13.780;2024-01-15T01:35:48;5.70;78.70
63277;DHT22;49403;51.046;13.780;2024-01-15T01:36:19;4.70;77.80
63277;DHT22;49403;51.046;13.780;2024-01-15T01:36:50;4.60;77.60
63277;DHT22;49403;51.046;13.780;2024-01-15T01:37:21;4.60;77.60
63277;DHT22;49403;51.046;13.780;2024-01-15T01:37:51;4.60;77.60
63277;DHT22;49403;51.046;13.780;2024-01-15T01:38:22;5.60;78.70
63277;DHT22;49403;51.046;13.780;2024-01-15T01:38:53;4.60;77.90
63277;DHT22;49403;51.046;13.780;2024-01-15T01:39:24;4.60;77.50
63277;DHT22;49403;51.046;13.780;2024-01-15T01:39:54;4.60;77.50
63277;DHT22;49403;51.046;13.780;2024-01-15T01:40:25;4.50;77.60
63277;DHT22;49403;51.046;13.780;2024-01-15T01:40:56;4.50;77.70
63277;DHT22;49403;51.046;13.780;2024-01-15T01:41:27;4.30;77.60
63277;DHT22;49403;51.046;13.780;2024-01-15T01:41:58;4.50;77.80
63277;DHT22;49403;51.046;13.780;2024-01-15T01:42:28;4.40;77.70
63277;DHT22;49403;51.046;13.780;2024-01-15T01:42:59;4.40;77.80
63277;DHT22;49403;51.046;13.780;2024-01-15T01:43:30;4.40;78.00
63277;DHT22;49403;51.046;13.780;2024-01-15T01:44:01;4.50;77.90
63277;DHT22;49403;51.046;13.780;2024-01-15T01:44:31;4.50;77.80
63277;DHT22;49403;51.046;13.780;2024-01-15T01:45:03;4.50;78.00
63277;DHT22;49403;51.046;13.780;2024-01-15T01:45:34;4.80;77.80
63277;DHT22;49403;51.046;13.780;2024-01-15T01:46:05;4.50;77.80
63277;DHT22;49403;51.046;13.780;2024-01-15T01:46:36;4.10;77.20
63277;DHT22;49403;51.046;13.780;2024-01-15T01:47:11;4.40;77.40
63277;DHT22;49403;51.046;13.780;2024-01-15T01:47:42;4.50;77.40
63277;DHT22;49403;51.046;13.780;2024-01-15T01:48:13;4.50;77.60
63277;DHT22;49403;51.046;13.780;2024-01-15T01:48:44;4.50;77.80
63277;DHT22;49403;51.046;13.780;2024-01-15T01:49:15;4.60;77.80
63277;DHT22;49403;51.046;13.780;2024-01-15T01:49:46;4.50;77.40
63277;DHT22;49403;51.046;13.780;2024-01-15T01:50:17;4.50;77.40
63277;DHT22;49403;51.046;13.780;2024-01-15T01:50:49;5.80;78.50
63277;DHT22;49403;51.046;13.780;2024-01-15T01:51:21;5.50;78.50
63277;DHT22;49403;51.046;13.780;2024-01-15T01:51:52;4.60;77.30
63277;DHT22;49403;51.046;13.780;2024-01-15T01:52:24;4.60;77.30
63277;DHT22;49403;51.046;13.780;2024-01-15T01:52:55;4.60;77.50
63277;DHT22;49403;51.046;13.780;2024-01-15T01:53:29;4.60;77.50
63277;DHT22;49403;51.046;13.780;2024-01-15T01:54:01;4.50;77.00
63277;DHT22;49403;51.046;13.780;2024-01-15T01:54:32;4.50;77.30
63277;DHT22;49403;51.046;13.780;2024-01-15T01:55:04;4.60;77.30
63277;DHT22;49403;51.046;13.780;2024-01-15T01:55:38;4.20;76.70
63277;DHT22;49403;51.046;13.780;2024-01-15T01:56:09;4.60;77.00
63277;DHT22;49403;51.046;13.780;2024-01-15T01:56:41;4.50;77.30
63277;DHT22;49403;51.046;13.780;2024-01-15T01:57:12;4.50;77.20
63277;DHT22;49403;51.046;13.780;2024-01-15T01:57:43;4.60;77.50
63277;DHT22;49403;51.046;13.780;2024-01-15T01:58:14;4.60;77.50
63277;DHT22;49403;51.046;13.780;2024-01-15T01:58:47;3.10;76.00
63277;DHT22;49403;51.046;13.780;2024-01-15T01:59:18;4.60;77.50
63277;DHT22;49403;51.046;13.780;2024-01-15T01:59:49;4.60;77.20
63277;DHT22;49403;51.046;13.780;2024-01-15T02:00:20;4.60;76.80
63277;DHT22;49403;51.046;13.780;2024-01-15T02:00:51;5.40;77.80
63277;DHT22;49403;51.046;13.780;2024-01-15T02:01:22;4.70;77.10
63277;DHT22;49403;51.046;13.780;2024-01-15T02:01:54;4.60;76.90
63277;DHT22;49403;51.046;13.780;2024-01-15T02:02:25;3.80;75.80
63277;DHT22;49403;51.046;13.780;2024-01-15T02:02:56;4.70;76.90
63277;DHT22;49403;51.046;13.780;2024-01-15T02:03:27;4.90;76.90
63277;DHT22;49403;51.046;13.780;2024-01-15T02:03:59;4.70;76.20
63277;DHT22;49403;51.046;13.780;2024-01-15T02:04:31;4.70;76.20
63277;DHT22;49403;51.046;13.780;2024-01-15T02:05:04;4.80;76.30
63277;DHT22;49403;51.046;13.780;2024-01-15T02:05:35;4.80;76.20
63277;DHT22;49403;51.046;13.780;2024-01-15T02:06:08;4.80;76.00
63277;DHT22;49403;51.046;13.780;2024-01-15T02:06:38;4.80;76.10
63277;DHT22;49403;51.046;13.780;2024-01-15T02:07:09;4.80;76.40
63277;DHT22;49403;51.046;13.780;2024-01-15T02:07:41;4.70;76.20
63277;DHT22;49403;51.046;13.780;2024-01-15T02:08:12;4.30;75.80
63277;DHT22;49403;51.046;13.780;2024-01-15T02:08:43;4.80;76.30
63277;DHT22;49403;51.046;13.780;2024-01-15T02:09:14;6.20;77.40
63277;DHT22;49403;51.046;13.780;2024-01-15T02:09:45;4.70;76.20
63277;DHT22;49403;51.046;13.780;2024-01-15T02:10:16;4.70;76.20
63277;DHT22;49403;51.046;13.780;2024-01-15T02:10:47;4.80;76.20
63277;DHT22;49403;51.046;13.780;2024-01-15T02:11:18;4.50;76.00
63277;DHT22;49403;51.046;13.780;2024-01-15T02:11:49;4.80;76.40
63277;DHT22;49403;51.046;13.780;2024-01-15T02:12:19;4.80;76.20
63277;DHT22;49403;51.046;13.780;2024-01-15T02:12:50;4.80;76.10
63277;DHT22;49403;51.046;13.780;2024-01-15T02:13:21;4.70;75.80
63277;DHT22;49403;51.046;13.780;2024-01-15T02:13:52;4.70;75.50
63277;DHT22;49403;51.046;13.780;2024-01-15T02:14:23;4.70;75.90
63277;DHT22;49403;51.046;13.780;2024-01-15T02:14:54;6.10;77.20
63277;DHT22;49403;51.046;13.780;2024-01-15T02:15:25;5.60;76.90
63277;DHT22;49403;51.046;13.780;2024-01-15T02:15:55;4.70;76.10
63277;DHT22;49403;51.046;13.780;2024-01-15T02:16:26;5.00;76.50
63277;DHT22;49403;51.046;13.780;2024-01-15T02:16:57;4.70;76.20
63277;DHT22;49403;51.046;13.780;2024-01-15T02:17:28;4.60;76.20
63277;DHT22;49403;51.046;13.780;2024-01-15T02:18:05;4.70;76.10
63277;DHT22;49403;51.046;13.780;2024-01-15T02:18:44;4.70;75.80
63277;DHT22;49403;51.046;13.780;2024-01-15T02:19:16;4.70;75.70
63277;DHT22;49403;51.046;13.780;2024-01-15T02:19:50;5.30;76.40
63277;DHT22;49403;51.046;13.780;2024-01-15T02:20:20;4.50;76.10
63277;DHT22;49403;51.046;13.780;2024-01-15T02:20:51;4.60;76.40
63277;DHT22;49403;51.046;13.780;2024-01-15T02:21:22;4.60;76.40
63277;DHT22;49403;51.046;13.780;2024-01-15T02:21:53;4.50;76.50
63277;DHT22;49403;51.046;13.780;2024-01-15T02:22:23;4.30;76.30
63277;DHT22;49403;51.046;13.780;2024-01-15T02:23:01;4.20;76.30
63277;DHT22;49403;51.046;13.780;2024-01-15T02:23:32;4.50;76.10
63277;DHT22;49403;51.046;13.780;2024-01-15T02:24:03;4.60;76.60
63277;DHT22;49403;51.046;13.780;2024-01-15T02:24:33;4.60;76.60
63277;DHT22;49403;51.046;13.780;2024-01-15T02:25:04;4.60;76.70
63277;DHT22;49403;51.046;13.780;2024-01-15T02:25:40;4.50;76.10
63277;DHT22;49403;51.046;13.780;2024-01-15T02:26:12;4.60;75.80
63277;DHT22;49403;51.046;13.780;2024-01-15T02:26:43;4.60;76.50
63277;DHT22;49403;51.046;13.780;2024-01-15T02:27:14;4.50;76.10
63277;DHT22;49403;51.046;13.780;2024-01-15T02:27:46;4.50;76.10
63277;DHT22;49403;51.046;13.780;2024-01-15T02:28:17;4.50;76.00
63277;DHT22;49403;51.046;13.780;2024-01-15T02:28:48;4.50;76.50
63277;DHT22;49403;51.046;13.780;2024-01-15T02:29:21;4.90;76.40
63277;DHT22;49403;51.046;13.780;2024-01-15T02:29:52;3.70;75.40
63277;DHT22;49403;51.046;13.780;2024-01-15T02:30:23;4.50;76.50
63277;DHT22;49403;51.046;13.780;2024-01-15T02:30:55;4.50;76.10
63277;DHT22;49403;51.046;13.780;2024-01-15T02:31:26;4.40;76.40
63277;DHT22;49403;51.046;13.780;2024-01-15T02:31:56;4.40;76.60
63277;DHT22;49403;51.046;13.780;2024-01-15T02:32:27;4.40;76.50
63277;DHT22;49403;51.046;13.780;2024-01-15T02:32:58;4.40;76.60
63277;DHT22;49403;51.046;13.780;2024-01-15T02:33:29;4.10;76.30
63277;DHT22;49403;51.046;13.780;2024-01-15T02:34:00;2.80;75.40
63277;DHT22;49403;51.046;13.780;2024-01-15T02:34:33;4.40;76.80
63277;DHT22;49403;51.046;13.780;2024-01-15T02:35:04;4.40;76.70
63277;DHT22;49403;51.046;13.780;2024-01-15T02:35:35;4.40;76.70
63277;DHT22;49403;51.046;13.780;2024-01-15T02:36:10;4.40;76.70
63277;DHT22;49403;51.046;13.780;2024-01-15T02:36:40;5.10;78.40
63277;DHT22;49403;51.046;13.780;2024-01-15T02:37:11;4.30;77.40
63277;DHT22;49403;51.046;13.780;2024-01-15T02:37:42;4.30;78.00
63277;DHT22;49403;51.046;13.780;2024-01-15T02:38:13;4.30;78.50
63277;DHT22;49403;51.046;13.780;2024-01-15T02:38:44;4.30;78.90
63277;DHT22;49403;51.046;13.780;2024-01-15T02:39:14;4.40;79.00
63277;DHT22;49403;51.046;13.780;2024-01-15T02:39:45;4.60;78.80
63277;DHT22;49403;51.046;13.780;2024-01-15T02:40:16;6.20;80.10
63277;DHT22;49403;51.046;13.780;2024-01-15T02:40:47;4.30;78.20
63277;DHT22;49403;51.046;13.780;2024-01-15T02:41:17;4.30;78.20
63277;DHT22;49403;51.046;13.780;2024-01-15T02:41:48;4.30;78.20
63277;DHT22;49403;51.046;13.780;2024-01-15T02:42:19;4.30;78.20
63277;DHT22;49403;51.046;13.780;2024-01-15T02:42:50;5.30;79.20
63277;DHT22;49403;51.046;13.780;2024-01-15T02:43:21;4.30;77.90
63277;DHT22;49403;51.046;13.780;2024-01-15T02:43:52;4.30;78.10
63277;DHT22;49403;51.046;13.780;2024-01-15T02:44:23;4.80;78.70
63277;DHT22;49403;51.046;13.780;2024-01-15T02:44:53;4.20;78.30
63277;DHT22;49403;51.046;13.780;2024-01-15T02:45:24;4.20;78.20
63277;DHT22;49403;51.046;13.780;2024-01-15T02:45:55;4.20;78.30
63277;DHT22;49403;51.046;13.780;2024-01-15T02:46:26;2.80;77.10
63277;DHT22;49403;51.046;13.780;2024-01-15T02:46:56;2.50;76.70
63277;DHT22;49403;51.046;13.780;2024-01-15T02:47:27;3.30;77.60
63277;DHT22;49403;51.046;13.780;2024-01-15T02:47:58;4.20;78.20
63277;DHT22;49403;51.046;13.780;2024-01-15T02:48:29;4.80;78.90
63277;DHT22;49403;51.046;13.780;2024-01-15T02:48:59;5.60;80.20
63277;DHT22;49403;51.046;13.780;2024-01-15T02:49:30;4.90;78.80
63277;DHT22;49403;51.046;13.780;2024-01-15T02:50:03;4.10;78.20
63277;DHT22;49403;51.046;13.780;2024-01-15T02:50:33;4.10;77.80
63277;DHT22;49403;51.046;13.780;2024-01-15T02:51:04;3.90;77.90
63277;DHT22;49403;51.046;13.780;2024-01-15T02:51:35;4.10;78.20
63277;DHT22;49403;51.046;13.780;2024-01-15T02:52:06;3.70;77.60
63277;DHT22;49403;51.046;13.780;2024-01-15T02:52:37;3.60;77.60
63277;DHT22;49403;51.046;13.780;2024-01-15T02:53:07;4.00;77.80
63277;DHT22;49403;51.046;13.780;2024-01-15T02:53:39;3.10;76.90
63277;DHT22;49403;51.046;13.780;2024-01-15T02:54:10;4.10;77.80
63277;DHT22;49403;51.046;13.780;2024-01-15T02:54:40;4.20;78.00
63277;DHT22;49403;51.046;13.780;2024-01-15T02:55:11;4.10;77.80
63277;DHT22;49403;51.046;13.780;2024-01-15T02:55:42;4.10;77.60
63277;DHT22;49403;51.046;13.780;2024-01-15T02:56:13;3.20;76.70
63277;DHT22;49403;51.046;13.780;2024-01-15T02:56:44;4.10;77.70
63277;DHT22;49403;51.046;13.780;2024-01-15T02:57:14;4.10;77.50
63277;DHT22;49403;51.046;13.780;2024-01-15T02:57:45;4.20;77.50
63277;DHT22;49403;51.046;13.780;2024-01-15T02:58:16;4.10;77.50
63277;DHT22;49403;51.046;13.780;2024-01-15T02:58:47;4.10;77.40
63277;DHT22;49403;51.046;13.780;2024-01-15T02:59:18;4.10;77.20
63277;DHT22;49403;51.046;13.780;2024-01-15T02:59:49;4.10;77.20
63277;DHT22;49403;51.046;13.780;2024-01-15T03:00:19;4.10;77.20
63277;DHT22;49403;51.046;13.780;2024-01-15T03:00:51;4.10;77.10
63277;DHT22;49403;51.046;13.780;2024-01-15T03:01:21;4.10;77.20
63277;DHT22;49403;51.046;13.780;2024-01-15T03:01:52;4.10;77.20
63277;DHT22;49403;51.046;13.780;2024-01-15T03:02:23;4.10;77.40
63277;DHT22;49403;51.046;13.780;2024-01-15T03:02:54;5.60;78.70
63277;DHT22;49403;51.046;13.780;2024-01-15T03:03:25;4.10;77.00
63277;DHT22;49403;51.046;13.780;2024-01-15T03:03:56;4.10;77.40
63277;DHT22;49403;51.046;13.780;2024-01-15T03:04:27;4.10;77.50
63277;DHT22;49403;51.046;13.780;2024-01-15T03:04:58;4.10;77.30
63277;DHT22;49403;51.046;13.780;2024-01-15T03:05:29;4.60;77.70
63277;DHT22;49403;51.046;13.780;2024-01-15T03:06:01;5.60;78.60
63277;DHT22;49403;51.046;13.780;2024-01-15T03:06:32;4.10;76.90
63277;DHT22;49403;51.046;13.780;2024-01-15T03:07:03;4.20;77.20
63277;DHT22;49403;51.046;13.780;2024-01-15T03:07:34;4.00;77.20
63277;DHT22;49403;51.046;13.780;2024-01-15T03:08:05;4.10;77.30
63277;DHT22;49403;51.046;13.780;2024-01-15T03:08:36;4.10;77.50
63277;DHT22;49403;51.046;13.780;2024-01-15T03:09:06;4.00;77.10
63277;DHT22;49403;51.046;13.780;2024-01-15T03:09:37;4.20;77.10
63277;DHT22;49403;51.046;13.780;2024-01-15T03:10:08;4.00;76.90
63277;DHT22;49403;51.046;13.780;2024-01-15T03:10:39;4.10;76.80
63277;DHT22;49403;51.046;13.780;2024-01-15T03:11:10;5.50;78.30
63277;DHT22;49403;51.046;13.780;2024-01-15T03:11:41;4.00;76.90
63277;DHT22;49403;51.046;13.780;2024-01-15T03:12:12;4.10;77.10
63277;DHT22;49403;51.046;13.780;2024-01-15T03:12:42;4.10;77.30
63277;DHT22;49403;51.046;13.780;2024-01-15T03:13:13;4.10;77.20
63277;DHT22;49403;51.046;13.780;2024-01-15T03:13:44;4.10;77.10
63277;DHT22;49403;51.046;13.780;2024-01-15T03:14:15;3.70;76.70
63277;DHT22;49403;51.046;13.780;2024-01-15T03:14:45;4.10;77.00
63277;DHT22;49403;51.046;13.780;2024-01-15T03:15:17;4.00;77.00
63277;DHT22;49403;51.046;13.780;2024-01-15T03:15:49;4.30;77.50
63277;DHT22;49403;51.046;13.780;2024-01-15T03:16:19;5.10;78.10